ACA136 CYYC-CYYZ
Flight info
| Callsign | ACA136 |
|---|---|
| Flight time | N/A |
| Altitude | 35000 |
| Route | LOMLO Q961 DAPOP DCT UDBOX DCT AGLIN DCT OTNIK BOXUM7 |
| Aircraft | A321/M-SDE3FGHIRWY/LB1 |
Departure
| Time | 2026-05-05 14:01 |
|---|---|
| Airport | Calgary International Airport (CYYC) |
Arrival
| Time | N/A |
|---|---|
| Airport | Toronto Pearson International Airport (CYYZ) |
| Time | Latitude | Longitude | Altitude | Speed | Heading |
|---|---|---|---|---|---|
| 2026-05-05 13:19 | 51.12808 | -114.00816 | 3560 ft | 0 kts | 358° |
| 2026-05-05 13:49 | 51.12796 | -114.00815 | 3558 ft | 3 kts | 358° |
| 2026-05-05 13:49 | 51.12779 | -114.00814 | 3558 ft | 2 kts | 358° |
| 2026-05-05 13:50 | 51.12765 | -114.00814 | 3560 ft | 1 kts | 30° |
| 2026-05-05 13:50 | 51.12755 | -114.00830 | 3560 ft | 2 kts | 63° |
| 2026-05-05 13:50 | 51.12750 | -114.00853 | 3560 ft | 2 kts | 79° |
| 2026-05-05 13:50 | 51.12748 | -114.00877 | 3560 ft | 2 kts | 96° |
| 2026-05-05 13:51 | 51.12747 | -114.00861 | 3560 ft | 2 kts | 96° |
| 2026-05-05 13:51 | 51.12746 | -114.00837 | 3560 ft | 2 kts | 96° |
| 2026-05-05 13:51 | 51.12745 | -114.00822 | 3559 ft | 0 kts | 95° |
| 2026-05-05 13:52 | 51.12744 | -114.00818 | 3559 ft | 2 kts | 95° |
| 2026-05-05 13:53 | 51.12735 | -114.00789 | 3559 ft | 4 kts | 140° |
| 2026-05-05 13:53 | 51.12695 | -114.00788 | 3555 ft | 8 kts | 185° |
| 2026-05-05 13:53 | 51.12639 | -114.00784 | 3559 ft | 7 kts | 157° |
| 2026-05-05 13:53 | 51.12616 | -114.00720 | 3559 ft | 7 kts | 97° |
| 2026-05-05 13:54 | 51.12612 | -114.00646 | 3559 ft | 6 kts | 92° |
| 2026-05-05 13:54 | 51.12612 | -114.00582 | 3559 ft | 5 kts | 90° |
| 2026-05-05 13:54 | 51.12612 | -114.00500 | 3559 ft | 11 kts | 88° |
| 2026-05-05 13:54 | 51.12616 | -114.00339 | 3559 ft | 18 kts | 91° |
| 2026-05-05 13:55 | 51.12612 | -114.00148 | 3559 ft | 16 kts | 91° |
| 2026-05-05 13:55 | 51.12612 | -113.99975 | 3559 ft | 15 kts | 90° |
| 2026-05-05 13:55 | 51.12613 | -113.99822 | 3559 ft | 13 kts | 89° |
| 2026-05-05 13:55 | 51.12614 | -113.99689 | 3559 ft | 11 kts | 90° |
| 2026-05-05 13:56 | 51.12614 | -113.99561 | 3560 ft | 12 kts | 90° |
| 2026-05-05 13:56 | 51.12583 | -113.99456 | 3559 ft | 10 kts | 153° |
| 2026-05-05 13:56 | 51.12511 | -113.99445 | 3560 ft | 13 kts | 179° |
| 2026-05-05 13:56 | 51.12423 | -113.99444 | 3560 ft | 12 kts | 180° |
| 2026-05-05 13:57 | 51.12341 | -113.99444 | 3560 ft | 13 kts | 180° |
| 2026-05-05 13:57 | 51.12233 | -113.99444 | 3560 ft | 18 kts | 180° |
| 2026-05-05 13:57 | 51.12093 | -113.99445 | 3558 ft | 22 kts | 180° |
| 2026-05-05 13:57 | 51.11950 | -113.99445 | 3560 ft | 20 kts | 180° |
| 2026-05-05 13:58 | 51.11806 | -113.99445 | 3560 ft | 22 kts | 180° |
| 2026-05-05 13:58 | 51.11641 | -113.99444 | 3560 ft | 24 kts | 179° |
| 2026-05-05 13:58 | 51.11482 | -113.99442 | 3560 ft | 22 kts | 180° |
| 2026-05-05 13:58 | 51.11336 | -113.99444 | 3560 ft | 20 kts | 181° |
| 2026-05-05 13:59 | 51.11086 | -113.99447 | 3560 ft | 12 kts | 179° |
| 2026-05-05 13:59 | 51.11037 | -113.99387 | 3557 ft | 8 kts | 107° |
| 2026-05-05 14:00 | 51.11032 | -113.99153 | 3562 ft | 17 kts | 90° |
| 2026-05-05 14:00 | 51.11054 | -113.99062 | 3563 ft | 13 kts | 39° |
| 2026-05-05 14:00 | 51.11316 | -113.99046 | 3561 ft | 66 kts | 0° |
| 2026-05-05 14:00 | 51.11975 | -113.99043 | 3563 ft | 124 kts | 0° |
| 2026-05-05 14:01 | 51.12998 | -113.99043 | 3562 ft | 169 kts | 360° |
| 2026-05-05 14:01 | 51.14219 | -113.99055 | 4049 ft | 173 kts | 359° |
| 2026-05-05 14:01 | 51.15423 | -113.98845 | 4692 ft | 175 kts | 12° |
| 2026-05-05 14:01 | 51.16609 | -113.98347 | 5315 ft | 178 kts | 14° |
| 2026-05-05 14:02 | 51.17861 | -113.97779 | 5650 ft | 198 kts | 14° |
| 2026-05-05 14:02 | 51.19260 | -113.97160 | 5871 ft | 220 kts | 13° |
| 2026-05-05 14:02 | 51.20821 | -113.96491 | 6063 ft | 244 kts | 13° |
| 2026-05-05 14:02 | 51.22498 | -113.95796 | 6473 ft | 256 kts | 13° |
| 2026-05-05 14:03 | 51.24240 | -113.95092 | 7084 ft | 260 kts | 12° |
| 2026-05-05 14:03 | 51.25959 | -113.94162 | 7740 ft | 265 kts | 28° |
| 2026-05-05 14:03 | 51.27336 | -113.92187 | 8370 ft | 273 kts | 53° |
| 2026-05-05 14:03 | 51.28036 | -113.89331 | 8979 ft | 284 kts | 80° |
| 2026-05-05 14:04 | 51.27811 | -113.86166 | 9568 ft | 295 kts | 109° |
| 2026-05-05 14:04 | 51.26739 | -113.83314 | 10137 ft | 304 kts | 122° |
| 2026-05-05 14:04 | 51.25483 | -113.80470 | 10327 ft | 324 kts | 123° |
| 2026-05-05 14:04 | 51.24139 | -113.77444 | 10455 ft | 344 kts | 122° |
| 2026-05-05 14:05 | 51.22720 | -113.74240 | 10584 ft | 363 kts | 122° |
| 2026-05-05 14:05 | 51.21236 | -113.70872 | 10734 ft | 380 kts | 122° |
| 2026-05-05 14:05 | 51.19700 | -113.67384 | 11163 ft | 386 kts | 122° |
| 2026-05-05 14:05 | 51.18145 | -113.63853 | 11665 ft | 391 kts | 122° |
| 2026-05-05 14:06 | 51.16564 | -113.60290 | 12177 ft | 395 kts | 122° |
| 2026-05-05 14:06 | 51.15510 | -113.57913 | 12497 ft | 398 kts | 122° |
| 2026-05-05 14:06 | 51.13911 | -113.54300 | 12985 ft | 402 kts | 122° |
| 2026-05-05 14:06 | 51.12294 | -113.50643 | 13474 ft | 405 kts | 121° |
| 2026-05-05 14:07 | 51.10661 | -113.46965 | 13927 ft | 409 kts | 121° |
| 2026-05-05 14:07 | 51.09044 | -113.43227 | 14387 ft | 410 kts | 117° |
| 2026-05-05 14:07 | 51.07753 | -113.39196 | 14822 ft | 409 kts | 106° |
| 2026-05-05 14:07 | 51.06899 | -113.34905 | 15258 ft | 405 kts | 97° |
| 2026-05-05 14:08 | 51.06489 | -113.30498 | 15697 ft | 402 kts | 88° |
| 2026-05-05 14:08 | 51.06241 | -113.26055 | 16114 ft | 404 kts | 89° |
| 2026-05-05 14:08 | 51.05978 | -113.21593 | 16530 ft | 406 kts | 89° |
| 2026-05-05 14:08 | 51.05693 | -113.17162 | 16911 ft | 409 kts | 90° |
| 2026-05-05 14:09 | 51.05380 | -113.12656 | 17279 ft | 411 kts | 90° |
| 2026-05-05 14:09 | 51.05054 | -113.08125 | 17660 ft | 414 kts | 90° |
| 2026-05-05 14:09 | 51.04718 | -113.03573 | 18033 ft | 417 kts | 90° |
| 2026-05-05 14:09 | 51.04377 | -112.98986 | 18413 ft | 418 kts | 90° |
| 2026-05-05 14:10 | 51.04042 | -112.94388 | 18774 ft | 420 kts | 90° |
| 2026-05-05 14:10 | 51.03710 | -112.89759 | 19118 ft | 422 kts | 90° |
| 2026-05-05 14:10 | 51.03378 | -112.85113 | 19474 ft | 424 kts | 90° |
| 2026-05-05 14:10 | 51.03043 | -112.80442 | 19822 ft | 427 kts | 90° |
| 2026-05-05 14:11 | 51.02705 | -112.75750 | 20168 ft | 429 kts | 90° |
| 2026-05-05 14:11 | 51.02365 | -112.71033 | 20502 ft | 431 kts | 90° |
| 2026-05-05 14:11 | 51.02020 | -112.66288 | 20854 ft | 433 kts | 90° |
| 2026-05-05 14:11 | 51.01669 | -112.61532 | 21210 ft | 435 kts | 90° |
| 2026-05-05 14:12 | 51.01313 | -112.56752 | 21552 ft | 437 kts | 90° |
| 2026-05-05 14:12 | 51.00953 | -112.51938 | 21887 ft | 440 kts | 90° |
| 2026-05-05 14:12 | 51.00589 | -112.47107 | 22207 ft | 442 kts | 90° |
| 2026-05-05 14:12 | 51.00226 | -112.42315 | 22522 ft | 444 kts | 90° |
| 2026-05-05 14:13 | 50.99852 | -112.37432 | 22833 ft | 446 kts | 90° |
| 2026-05-05 14:13 | 50.99476 | -112.32539 | 23131 ft | 448 kts | 91° |
| 2026-05-05 14:13 | 50.99097 | -112.27606 | 23422 ft | 450 kts | 90° |
| 2026-05-05 14:13 | 50.98715 | -112.22661 | 23700 ft | 453 kts | 90° |
| 2026-05-05 14:14 | 50.98330 | -112.17677 | 23981 ft | 455 kts | 91° |
| 2026-05-05 14:14 | 50.97941 | -112.12678 | 24262 ft | 457 kts | 90° |
| 2026-05-05 14:14 | 50.97549 | -112.07663 | 24540 ft | 459 kts | 90° |
| 2026-05-05 14:14 | 50.97151 | -112.02617 | 24822 ft | 461 kts | 90° |
| 2026-05-05 14:15 | 50.96747 | -111.97561 | 25104 ft | 463 kts | 90° |
| 2026-05-05 14:15 | 50.96345 | -111.92556 | 25403 ft | 463 kts | 91° |
| 2026-05-05 14:15 | 50.95933 | -111.87477 | 25689 ft | 465 kts | 91° |
| 2026-05-05 14:15 | 50.95516 | -111.82383 | 25942 ft | 467 kts | 90° |
| 2026-05-05 14:16 | 50.95100 | -111.77273 | 26202 ft | 468 kts | 90° |
| 2026-05-05 14:16 | 50.94685 | -111.72144 | 26414 ft | 469 kts | 90° |
| 2026-05-05 14:16 | 50.94268 | -111.67004 | 26628 ft | 471 kts | 90° |
| 2026-05-05 14:16 | 50.93845 | -111.61843 | 26832 ft | 473 kts | 90° |
| 2026-05-05 14:17 | 50.93416 | -111.56660 | 27046 ft | 474 kts | 90° |
| 2026-05-05 14:17 | 50.92982 | -111.51468 | 27206 ft | 476 kts | 89° |
| 2026-05-05 14:17 | 50.92562 | -111.46271 | 27369 ft | 475 kts | 87° |
| 2026-05-05 14:17 | 50.92267 | -111.41074 | 27528 ft | 473 kts | 85° |
| 2026-05-05 14:18 | 50.92096 | -111.35877 | 27685 ft | 472 kts | 84° |
| 2026-05-05 14:18 | 50.91992 | -111.30685 | 27884 ft | 469 kts | 83° |
| 2026-05-05 14:18 | 50.91913 | -111.25502 | 28097 ft | 471 kts | 83° |
| 2026-05-05 14:18 | 50.91817 | -111.20407 | 28301 ft | 469 kts | 84° |
| 2026-05-05 14:19 | 50.91686 | -111.15242 | 28482 ft | 470 kts | 84° |
| 2026-05-05 14:19 | 50.91527 | -111.10061 | 28686 ft | 472 kts | 85° |
| 2026-05-05 14:19 | 50.91344 | -111.04884 | 28902 ft | 469 kts | 84° |
| 2026-05-05 14:19 | 50.91167 | -110.99733 | 29129 ft | 467 kts | 84° |
| 2026-05-05 14:20 | 50.90987 | -110.94589 | 29296 ft | 466 kts | 84° |
| 2026-05-05 14:20 | 50.90811 | -110.89460 | 29445 ft | 467 kts | 85° |
| 2026-05-05 14:20 | 50.90627 | -110.84312 | 29635 ft | 467 kts | 85° |
| 2026-05-05 14:20 | 50.90445 | -110.79177 | 29793 ft | 468 kts | 84° |
| 2026-05-05 14:21 | 50.90265 | -110.74024 | 29983 ft | 468 kts | 84° |
| 2026-05-05 14:21 | 50.90087 | -110.68872 | 30185 ft | 467 kts | 84° |
| 2026-05-05 14:21 | 50.89906 | -110.63729 | 30360 ft | 467 kts | 85° |
| 2026-05-05 14:21 | 50.89725 | -110.58600 | 30524 ft | 466 kts | 85° |
| 2026-05-05 14:22 | 50.89539 | -110.53459 | 30685 ft | 467 kts | 85° |
| 2026-05-05 14:22 | 50.89349 | -110.48327 | 30879 ft | 467 kts | 85° |
| 2026-05-05 14:22 | 50.89154 | -110.43188 | 31053 ft | 468 kts | 85° |
| 2026-05-05 14:22 | 50.88959 | -110.38118 | 31230 ft | 468 kts | 85° |
| 2026-05-05 14:23 | 50.88761 | -110.32969 | 31406 ft | 467 kts | 86° |
| 2026-05-05 14:23 | 50.88556 | -110.27833 | 31557 ft | 467 kts | 86° |
| 2026-05-05 14:23 | 50.88349 | -110.22698 | 31717 ft | 467 kts | 86° |
| 2026-05-05 14:23 | 50.88141 | -110.17565 | 31877 ft | 467 kts | 86° |
| 2026-05-05 14:24 | 50.87931 | -110.12425 | 32044 ft | 467 kts | 86° |
| 2026-05-05 14:24 | 50.87722 | -110.07290 | 32200 ft | 467 kts | 86° |
| 2026-05-05 14:24 | 50.87511 | -110.02152 | 32355 ft | 467 kts | 86° |
| 2026-05-05 14:24 | 50.87291 | -109.97017 | 32508 ft | 468 kts | 86° |
| 2026-05-05 14:25 | 50.87066 | -109.91875 | 32671 ft | 468 kts | 88° |
| 2026-05-05 14:25 | 50.86840 | -109.86800 | 32834 ft | 467 kts | 88° |
| 2026-05-05 14:25 | 50.86609 | -109.81664 | 32982 ft | 468 kts | 88° |
| 2026-05-05 14:25 | 50.86378 | -109.76519 | 33133 ft | 468 kts | 88° |
| 2026-05-05 14:26 | 50.86145 | -109.71388 | 33283 ft | 468 kts | 88° |
| 2026-05-05 14:26 | 50.85907 | -109.66237 | 33424 ft | 468 kts | 88° |
| 2026-05-05 14:26 | 50.85667 | -109.61105 | 33562 ft | 468 kts | 88° |
| 2026-05-05 14:26 | 50.85425 | -109.55968 | 33707 ft | 468 kts | 88° |
| 2026-05-05 14:27 | 50.85182 | -109.50833 | 33840 ft | 469 kts | 88° |
| 2026-05-05 14:27 | 50.84939 | -109.45689 | 33981 ft | 468 kts | 88° |
| 2026-05-05 14:27 | 50.84691 | -109.40551 | 34124 ft | 468 kts | 88° |
| 2026-05-05 14:27 | 50.84435 | -109.35406 | 34265 ft | 469 kts | 88° |
| 2026-05-05 14:28 | 50.84181 | -109.30276 | 34401 ft | 469 kts | 88° |
| 2026-05-05 14:28 | 50.83927 | -109.25130 | 34542 ft | 468 kts | 88° |
| 2026-05-05 14:28 | 50.83672 | -109.19981 | 34678 ft | 469 kts | 88° |
| 2026-05-05 14:28 | 50.83413 | -109.14839 | 34809 ft | 469 kts | 88° |
| 2026-05-05 14:29 | 50.83151 | -109.09697 | 34951 ft | 468 kts | 88° |
| 2026-05-05 14:29 | 50.82890 | -109.04636 | 35108 ft | 468 kts | 89° |
| 2026-05-05 14:29 | 50.82354 | -108.94366 | 35184 ft | 468 kts | 89° |
| 2026-05-05 14:30 | 50.81812 | -108.84091 | 35183 ft | 469 kts | 89° |
| 2026-05-05 14:30 | 50.81257 | -108.73818 | 35174 ft | 469 kts | 89° |
| 2026-05-05 14:31 | 50.80689 | -108.63533 | 35174 ft | 469 kts | 89° |
| 2026-05-05 14:31 | 50.80116 | -108.53258 | 35173 ft | 469 kts | 89° |
| 2026-05-05 14:32 | 50.79539 | -108.42993 | 35167 ft | 468 kts | 90° |
| 2026-05-05 14:32 | 50.78954 | -108.32745 | 35158 ft | 468 kts | 90° |
| 2026-05-05 14:33 | 50.78363 | -108.22492 | 35155 ft | 469 kts | 90° |
| 2026-05-05 14:33 | 50.77745 | -108.12231 | 35149 ft | 469 kts | 90° |
| 2026-05-05 14:34 | 50.77120 | -108.01960 | 35152 ft | 470 kts | 90° |
| 2026-05-05 14:34 | 50.76491 | -107.91693 | 35149 ft | 470 kts | 90° |
| 2026-05-05 14:35 | 50.75858 | -107.81411 | 35138 ft | 470 kts | 91° |
| 2026-05-05 14:35 | 50.75212 | -107.71126 | 35140 ft | 470 kts | 91° |
| 2026-05-05 14:36 | 50.74559 | -107.60849 | 35148 ft | 470 kts | 91° |
| 2026-05-05 14:36 | 50.73897 | -107.50567 | 35147 ft | 471 kts | 91° |
| 2026-05-05 14:37 | 50.73222 | -107.40272 | 35152 ft | 471 kts | 91° |
| 2026-05-05 14:37 | 50.72533 | -107.30039 | 35153 ft | 471 kts | 91° |
| 2026-05-05 14:38 | 50.71841 | -107.19765 | 35156 ft | 471 kts | 91° |
| 2026-05-05 14:38 | 50.71142 | -107.09493 | 35157 ft | 471 kts | 91° |
| 2026-05-05 14:39 | 50.70430 | -106.99212 | 35157 ft | 471 kts | 91° |
| 2026-05-05 14:39 | 50.69714 | -106.88958 | 35155 ft | 471 kts | 91° |
| 2026-05-05 14:40 | 50.68994 | -106.78682 | 35158 ft | 471 kts | 92° |
| 2026-05-05 14:40 | 50.68266 | -106.68460 | 35158 ft | 471 kts | 92° |
| 2026-05-05 14:41 | 50.67514 | -106.58178 | 35154 ft | 472 kts | 92° |
| 2026-05-05 14:41 | 50.66750 | -106.47914 | 35153 ft | 471 kts | 92° |
| 2026-05-05 14:42 | 50.65990 | -106.37644 | 35150 ft | 471 kts | 92° |
| 2026-05-05 14:42 | 50.65221 | -106.27371 | 35144 ft | 472 kts | 92° |
| 2026-05-05 14:43 | 50.64445 | -106.17169 | 35136 ft | 471 kts | 92° |
| 2026-05-05 14:43 | 50.63646 | -106.06893 | 35136 ft | 472 kts | 93° |
| 2026-05-05 14:44 | 50.62834 | -105.96630 | 35134 ft | 472 kts | 93° |
| 2026-05-05 14:44 | 50.62022 | -105.86373 | 35138 ft | 472 kts | 93° |
| 2026-05-05 14:45 | 50.61212 | -105.76110 | 35141 ft | 472 kts | 93° |
| 2026-05-05 14:45 | 50.60392 | -105.65844 | 35142 ft | 472 kts | 93° |
| 2026-05-05 14:46 | 50.59551 | -105.55582 | 35141 ft | 473 kts | 94° |
| 2026-05-05 14:46 | 50.58693 | -105.45393 | 35146 ft | 473 kts | 94° |
| 2026-05-05 14:47 | 50.57828 | -105.35132 | 35143 ft | 473 kts | 94° |
| 2026-05-05 14:47 | 50.56973 | -105.24886 | 35142 ft | 472 kts | 94° |
| 2026-05-05 14:48 | 50.56107 | -105.14631 | 35137 ft | 472 kts | 94° |
| 2026-05-05 14:48 | 50.55221 | -105.04389 | 35129 ft | 472 kts | 94° |
| 2026-05-05 14:49 | 50.54324 | -104.94162 | 35124 ft | 472 kts | 95° |
| 2026-05-05 14:49 | 50.53424 | -104.84017 | 35117 ft | 472 kts | 94° |
| 2026-05-05 14:50 | 50.52525 | -104.73809 | 35104 ft | 472 kts | 94° |
| 2026-05-05 14:50 | 50.51618 | -104.63591 | 35101 ft | 472 kts | 95° |
| 2026-05-05 14:51 | 50.50683 | -104.53374 | 35099 ft | 473 kts | 95° |
| 2026-05-05 14:51 | 50.49736 | -104.43149 | 35080 ft | 472 kts | 95° |
| 2026-05-05 14:52 | 50.48786 | -104.32941 | 35082 ft | 473 kts | 95° |
| 2026-05-05 14:52 | 50.47836 | -104.22773 | 35080 ft | 474 kts | 95° |
| 2026-05-05 14:53 | 50.46867 | -104.12550 | 35082 ft | 473 kts | 95° |
| 2026-05-05 14:53 | 50.45895 | -104.02310 | 35088 ft | 474 kts | 95° |
| 2026-05-05 14:54 | 50.44917 | -103.92078 | 35089 ft | 474 kts | 96° |
| 2026-05-05 14:54 | 50.43921 | -103.81845 | 35091 ft | 475 kts | 96° |
| 2026-05-05 14:55 | 50.42911 | -103.71605 | 35085 ft | 475 kts | 96° |
| 2026-05-05 14:55 | 50.42065 | -103.63080 | 35094 ft | 475 kts | 96° |
| 2026-05-05 14:56 | 50.41042 | -103.52853 | 35091 ft | 475 kts | 96° |
| 2026-05-05 14:56 | 50.40008 | -103.42612 | 35089 ft | 475 kts | 96° |
| 2026-05-05 14:57 | 50.38979 | -103.32445 | 35084 ft | 475 kts | 96° |
| 2026-05-05 14:57 | 50.37938 | -103.22219 | 35088 ft | 475 kts | 96° |
| 2026-05-05 14:58 | 50.36890 | -103.12002 | 35085 ft | 475 kts | 96° |
| 2026-05-05 14:58 | 50.35822 | -103.01807 | 35070 ft | 474 kts | 97° |
| 2026-05-05 14:59 | 50.34740 | -102.91625 | 35072 ft | 474 kts | 97° |
| 2026-05-05 14:59 | 50.33651 | -102.81444 | 35073 ft | 474 kts | 97° |
| 2026-05-05 15:00 | 50.32746 | -102.72976 | 35063 ft | 475 kts | 97° |
| 2026-05-05 15:00 | 50.31474 | -102.61066 | 35068 ft | 475 kts | 97° |
| 2026-05-05 15:01 | 50.30368 | -102.50869 | 35062 ft | 475 kts | 97° |
| 2026-05-05 15:01 | 50.29247 | -102.40727 | 35073 ft | 476 kts | 97° |
| 2026-05-05 15:02 | 50.28112 | -102.30561 | 35071 ft | 475 kts | 97° |
| 2026-05-05 15:02 | 50.26976 | -102.20398 | 35064 ft | 474 kts | 97° |
| 2026-05-05 15:03 | 50.25837 | -102.10247 | 35059 ft | 474 kts | 97° |
| 2026-05-05 15:03 | 50.24680 | -102.00101 | 35048 ft | 475 kts | 97° |
| 2026-05-05 15:04 | 50.23523 | -101.89944 | 35054 ft | 475 kts | 97° |
| 2026-05-05 15:04 | 50.22352 | -101.79775 | 35049 ft | 475 kts | 98° |
| 2026-05-05 15:05 | 50.20566 | -101.64561 | 35043 ft | 474 kts | 98° |
| 2026-05-05 15:06 | 50.19378 | -101.54507 | 35042 ft | 474 kts | 98° |
| 2026-05-05 15:06 | 50.18180 | -101.44398 | 35040 ft | 474 kts | 98° |
| 2026-05-05 15:07 | 50.16973 | -101.34303 | 35033 ft | 473 kts | 98° |
| 2026-05-05 15:07 | 50.15758 | -101.24222 | 35032 ft | 473 kts | 98° |
| 2026-05-05 15:08 | 50.14538 | -101.14135 | 35027 ft | 474 kts | 98° |
| 2026-05-05 15:08 | 50.13303 | -101.04099 | 35034 ft | 474 kts | 98° |
| 2026-05-05 15:09 | 50.12052 | -100.94003 | 35030 ft | 474 kts | 98° |
| 2026-05-05 15:09 | 50.10796 | -100.83906 | 35020 ft | 475 kts | 99° |
| 2026-05-05 15:10 | 50.09537 | -100.73792 | 35018 ft | 475 kts | 99° |
| 2026-05-05 15:10 | 50.08266 | -100.63688 | 35017 ft | 476 kts | 99° |
| 2026-05-05 15:11 | 50.06976 | -100.53588 | 35023 ft | 475 kts | 99° |
| 2026-05-05 15:11 | 50.05680 | -100.43488 | 35014 ft | 476 kts | 99° |
| 2026-05-05 15:12 | 50.04375 | -100.33368 | 35020 ft | 477 kts | 99° |
| 2026-05-05 15:12 | 50.03067 | -100.23250 | 35018 ft | 477 kts | 99° |
| 2026-05-05 15:13 | 50.01741 | -100.13124 | 35018 ft | 478 kts | 99° |
| 2026-05-05 15:13 | 50.00403 | -100.03078 | 35022 ft | 478 kts | 99° |
| 2026-05-05 15:14 | 49.99126 | -99.92928 | 35021 ft | 478 kts | 98° |
| 2026-05-05 15:14 | 49.97977 | -99.82748 | 35024 ft | 478 kts | 98° |
| 2026-05-05 15:15 | 49.96823 | -99.72559 | 35028 ft | 478 kts | 98° |
| 2026-05-05 15:15 | 49.95632 | -99.62393 | 35027 ft | 479 kts | 98° |
| 2026-05-05 15:16 | 49.94410 | -99.52225 | 35024 ft | 479 kts | 98° |
| 2026-05-05 15:16 | 49.93180 | -99.42048 | 35023 ft | 480 kts | 98° |
| 2026-05-05 15:17 | 49.91956 | -99.31859 | 35022 ft | 480 kts | 99° |
| 2026-05-05 15:17 | 49.90719 | -99.21659 | 35024 ft | 482 kts | 99° |
| 2026-05-05 15:18 | 49.89469 | -99.11519 | 35023 ft | 482 kts | 99° |
| 2026-05-05 15:18 | 49.88211 | -99.01303 | 35023 ft | 482 kts | 99° |
| 2026-05-05 15:19 | 49.86942 | -98.91100 | 35020 ft | 482 kts | 99° |
| 2026-05-05 15:19 | 49.85661 | -98.80904 | 35014 ft | 481 kts | 100° |
| 2026-05-05 15:20 | 49.84365 | -98.70735 | 35019 ft | 482 kts | 100° |
| 2026-05-05 15:20 | 49.83064 | -98.60537 | 35026 ft | 482 kts | 100° |
| 2026-05-05 15:21 | 49.81775 | -98.50422 | 35031 ft | 483 kts | 100° |
| 2026-05-05 15:21 | 49.80466 | -98.40225 | 35038 ft | 481 kts | 100° |
| 2026-05-05 15:22 | 49.79136 | -98.30068 | 35033 ft | 481 kts | 100° |
| 2026-05-05 15:22 | 49.77802 | -98.19936 | 35033 ft | 481 kts | 100° |
| 2026-05-05 15:23 | 49.76463 | -98.09807 | 35035 ft | 481 kts | 101° |
| 2026-05-05 15:23 | 49.75115 | -97.99684 | 35032 ft | 480 kts | 101° |
| 2026-05-05 15:24 | 49.73760 | -97.89555 | 35028 ft | 480 kts | 101° |
| 2026-05-05 15:24 | 49.72401 | -97.79430 | 35026 ft | 480 kts | 101° |
| 2026-05-05 15:25 | 49.71025 | -97.69319 | 35025 ft | 481 kts | 101° |
| 2026-05-05 15:25 | 49.69642 | -97.59217 | 35015 ft | 480 kts | 101° |
| 2026-05-05 15:26 | 49.68260 | -97.49177 | 35013 ft | 480 kts | 101° |
| 2026-05-05 15:26 | 49.66864 | -97.39090 | 35015 ft | 481 kts | 101° |
| 2026-05-05 15:27 | 49.65458 | -97.29009 | 35003 ft | 481 kts | 101° |
| 2026-05-05 15:27 | 49.64040 | -97.18922 | 34990 ft | 481 kts | 101° |
| 2026-05-05 15:28 | 49.62610 | -97.08818 | 34991 ft | 482 kts | 102° |
| 2026-05-05 15:28 | 49.61181 | -96.98726 | 34992 ft | 482 kts | 102° |
| 2026-05-05 15:29 | 49.59734 | -96.88611 | 34991 ft | 483 kts | 102° |
| 2026-05-05 15:29 | 49.58274 | -96.78574 | 34986 ft | 483 kts | 102° |
| 2026-05-05 15:30 | 49.56809 | -96.68476 | 34984 ft | 483 kts | 102° |
| 2026-05-05 15:30 | 49.55331 | -96.58377 | 34981 ft | 483 kts | 102° |
| 2026-05-05 15:31 | 49.53842 | -96.48271 | 34979 ft | 483 kts | 102° |
| 2026-05-05 15:31 | 49.52340 | -96.38195 | 34978 ft | 482 kts | 102° |
| 2026-05-05 15:32 | 49.50846 | -96.28188 | 34977 ft | 483 kts | 102° |
| 2026-05-05 15:32 | 49.49341 | -96.18121 | 34973 ft | 482 kts | 102° |
| 2026-05-05 15:33 | 49.47833 | -96.08064 | 34964 ft | 481 kts | 102° |
| 2026-05-05 15:33 | 49.46306 | -95.98040 | 34961 ft | 481 kts | 103° |
| 2026-05-05 15:34 | 49.44761 | -95.88046 | 34951 ft | 480 kts | 103° |
| 2026-05-05 15:34 | 49.43218 | -95.78060 | 34945 ft | 480 kts | 103° |
| 2026-05-05 15:35 | 49.41679 | -95.68068 | 34931 ft | 481 kts | 103° |
| 2026-05-05 15:35 | 49.40136 | -95.58135 | 34928 ft | 481 kts | 103° |
| 2026-05-05 15:36 | 49.38568 | -95.48134 | 34921 ft | 482 kts | 103° |
| 2026-05-05 15:36 | 49.36989 | -95.38119 | 34917 ft | 483 kts | 103° |
| 2026-05-05 15:37 | 49.35399 | -95.28099 | 34911 ft | 483 kts | 103° |
| 2026-05-05 15:37 | 49.33794 | -95.18080 | 34906 ft | 483 kts | 103° |
| 2026-05-05 15:38 | 49.32190 | -95.08075 | 34903 ft | 483 kts | 103° |
| 2026-05-05 15:38 | 49.30572 | -94.98083 | 34904 ft | 484 kts | 104° |
| 2026-05-05 15:39 | 49.28938 | -94.88074 | 34903 ft | 484 kts | 104° |
| 2026-05-05 15:39 | 49.27312 | -94.78096 | 34899 ft | 483 kts | 103° |